sensor_id;sensor_type;location;lat;lon;timestamp;P1;durP1;ratioP1;P2;durP2;ratioP2
15035;SDS011;7615;48.574;13.474;2023-09-19T00:01:20;1.83;;;1.65;;
15035;SDS011;7615;48.574;13.474;2023-09-19T00:03:49;3.28;;;1.70;;
15035;SDS011;7615;48.574;13.474;2023-09-19T00:06:18;3.65;;;1.70;;
15035;SDS011;7615;48.574;13.474;2023-09-19T00:08:45;2.20;;;2.00;;
15035;SDS011;7615;48.574;13.474;2023-09-19T00:11:13;2.30;;;1.80;;
15035;SDS011;7615;48.574;13.474;2023-09-19T00:13:41;5.35;;;2.05;;
15035;SDS011;7615;48.574;13.474;2023-09-19T00:16:09;9.50;;;2.88;;
15035;SDS011;7615;48.574;13.474;2023-09-19T00:18:37;3.53;;;1.73;;
15035;SDS011;7615;48.574;13.474;2023-09-19T00:21:06;3.47;;;1.73;;
15035;SDS011;7615;48.574;13.474;2023-09-19T00:23:33;2.17;;;1.60;;
15035;SDS011;7615;48.574;13.474;2023-09-19T00:26:03;2.65;;;1.83;;
15035;SDS011;7615;48.574;13.474;2023-09-19T00:28:33;3.90;;;1.88;;
15035;SDS011;7615;48.574;13.474;2023-09-19T00:31:00;2.55;;;1.70;;
15035;SDS011;7615;48.574;13.474;2023-09-19T00:33:27;2.75;;;1.88;;
15035;SDS011;7615;48.574;13.474;2023-09-19T00:35:56;2.15;;;1.70;;
15035;SDS011;7615;48.574;13.474;2023-09-19T00:38:27;3.47;;;2.00;;
15035;SDS011;7615;48.574;13.474;2023-09-19T00:40:57;5.28;;;2.40;;
15035;SDS011;7615;48.574;13.474;2023-09-19T00:43:26;4.05;;;2.10;;
15035;SDS011;7615;48.574;13.474;2023-09-19T00:45:54;4.97;;;2.40;;
15035;SDS011;7615;48.574;13.474;2023-09-19T00:48:26;3.33;;;2.30;;
15035;SDS011;7615;48.574;13.474;2023-09-19T00:50:54;5.28;;;1.70;;
15035;SDS011;7615;48.574;13.474;2023-09-19T00:53:23;2.30;;;1.90;;
15035;SDS011;7615;48.574;13.474;2023-09-19T00:55:53;2.17;;;1.70;;
15035;SDS011;7615;48.574;13.474;2023-09-19T00:58:22;2.85;;;1.70;;
15035;SDS011;7615;48.574;13.474;2023-09-19T01:00:57;5.45;;;1.75;;
15035;SDS011;7615;48.574;13.474;2023-09-19T01:03:25;2.75;;;1.70;;
15035;SDS011;7615;48.574;13.474;2023-09-19T01:05:52;3.30;;;1.48;;
15035;SDS011;7615;48.574;13.474;2023-09-19T01:08:20;3.33;;;2.08;;
15035;SDS011;7615;48.574;13.474;2023-09-19T01:10:51;2.72;;;2.00;;
15035;SDS011;7615;48.574;13.474;2023-09-19T01:13:27;3.08;;;1.50;;
15035;SDS011;7615;48.574;13.474;2023-09-19T01:16:03;6.32;;;1.80;;
15035;SDS011;7615;48.574;13.474;2023-09-19T01:18:41;1.95;;;1.83;;
15035;SDS011;7615;48.574;13.474;2023-09-19T01:21:15;4.32;;;1.90;;
15035;SDS011;7615;48.574;13.474;2023-09-19T01:27:06;3.95;;;1.80;;
15035;SDS011;7615;48.574;13.474;2023-09-19T01:29:51;1.70;;;1.60;;
15035;SDS011;7615;48.574;13.474;2023-09-19T01:32:22;2.25;;;1.80;;
15035;SDS011;7615;48.574;13.474;2023-09-19T01:34:51;2.80;;;1.48;;
15035;SDS011;7615;48.574;13.474;2023-09-19T01:37:23;2.85;;;2.15;;
15035;SDS011;7615;48.574;13.474;2023-09-19T01:39:57;3.92;;;1.70;;
15035;SDS011;7615;48.574;13.474;2023-09-19T01:42:43;2.78;;;1.45;;
15035;SDS011;7615;48.574;13.474;2023-09-19T01:45:16;2.05;;;1.67;;
15035;SDS011;7615;48.574;13.474;2023-09-19T01:47:54;7.40;;;1.85;;
15035;SDS011;7615;48.574;13.474;2023-09-19T01:50:26;4.85;;;1.80;;
15035;SDS011;7615;48.574;13.474;2023-09-19T01:53:00;4.50;;;1.60;;
15035;SDS011;7615;48.574;13.474;2023-09-19T01:55:35;5.95;;;1.60;;
15035;SDS011;7615;48.574;13.474;2023-09-19T01:58:12;2.10;;;1.50;;
15035;SDS011;7615;48.574;13.474;2023-09-19T02:00:43;2.65;;;1.58;;
15035;SDS011;7615;48.574;13.474;2023-09-19T02:03:15;1.95;;;1.80;;
15035;SDS011;7615;48.574;13.474;2023-09-19T02:05:47;3.22;;;1.75;;
15035;SDS011;7615;48.574;13.474;2023-09-19T02:08:17;4.43;;;2.00;;
15035;SDS011;7615;48.574;13.474;2023-09-19T02:10:46;4.20;;;2.40;;
15035;SDS011;7615;48.574;13.474;2023-09-19T02:13:19;8.70;;;3.00;;
15035;SDS011;7615;48.574;13.474;2023-09-19T02:15:47;5.07;;;2.50;;
15035;SDS011;7615;48.574;13.474;2023-09-19T02:18:16;3.80;;;2.30;;
15035;SDS011;7615;48.574;13.474;2023-09-19T02:20:47;2.63;;;2.42;;
15035;SDS011;7615;48.574;13.474;2023-09-19T02:23:16;2.53;;;2.33;;
15035;SDS011;7615;48.574;13.474;2023-09-19T02:25:51;5.07;;;2.38;;
15035;SDS011;7615;48.574;13.474;2023-09-19T02:28:21;3.20;;;2.30;;
15035;SDS011;7615;48.574;13.474;2023-09-19T02:31:02;3.83;;;2.30;;
15035;SDS011;7615;48.574;13.474;2023-09-19T02:33:32;3.10;;;2.58;;
15035;SDS011;7615;48.574;13.474;2023-09-19T02:36:00;3.40;;;2.22;;
15035;SDS011;7615;48.574;13.474;2023-09-19T02:38:29;4.30;;;2.20;;
15035;SDS011;7615;48.574;13.474;2023-09-19T02:40:56;4.20;;;2.40;;
15035;SDS011;7615;48.574;13.474;2023-09-19T02:43:24;2.75;;;2.33;;
15035;SDS011;7615;48.574;13.474;2023-09-19T02:45:51;4.85;;;2.50;;
15035;SDS011;7615;48.574;13.474;2023-09-19T02:48:19;3.92;;;2.10;;
15035;SDS011;7615;48.574;13.474;2023-09-19T02:50:50;2.78;;;2.15;;
15035;SDS011;7615;48.574;13.474;2023-09-19T02:53:18;2.25;;;1.80;;
15035;SDS011;7615;48.574;13.474;2023-09-19T02:55:47;5.93;;;2.25;;
15035;SDS011;7615;48.574;13.474;2023-09-19T02:58:19;4.07;;;2.00;;
15035;SDS011;7615;48.574;13.474;2023-09-19T03:00:47;3.05;;;2.10;;
15035;SDS011;7615;48.574;13.474;2023-09-19T03:03:16;3.90;;;1.75;;
15035;SDS011;7615;48.574;13.474;2023-09-19T03:05:43;1.80;;;1.70;;
15035;SDS011;7615;48.574;13.474;2023-09-19T03:08:13;3.20;;;2.03;;
15035;SDS011;7615;48.574;13.474;2023-09-19T03:10:42;2.13;;;1.80;;
15035;SDS011;7615;48.574;13.474;2023-09-19T03:13:14;2.75;;;1.70;;
15035;SDS011;7615;48.574;13.474;2023-09-19T03:15:41;2.58;;;1.63;;
15035;SDS011;7615;48.574;13.474;2023-09-19T03:18:14;4.32;;;1.50;;
15035;SDS011;7615;48.574;13.474;2023-09-19T03:20:41;4.07;;;1.67;;
15035;SDS011;7615;48.574;13.474;2023-09-19T03:23:10;4.45;;;1.55;;
15035;SDS011;7615;48.574;13.474;2023-09-19T03:25:40;4.55;;;1.58;;
15035;SDS011;7615;48.574;13.474;2023-09-19T03:28:08;1.70;;;1.58;;
15035;SDS011;7615;48.574;13.474;2023-09-19T03:30:36;1.90;;;1.75;;
15035;SDS011;7615;48.574;13.474;2023-09-19T03:33:04;1.60;;;1.50;;
15035;SDS011;7615;48.574;13.474;2023-09-19T03:35:33;1.90;;;1.65;;
15035;SDS011;7615;48.574;13.474;2023-09-19T03:38:01;2.20;;;1.55;;
15035;SDS011;7615;48.574;13.474;2023-09-19T03:40:30;5.40;;;2.28;;
15035;SDS011;7615;48.574;13.474;2023-09-19T03:43:01;5.10;;;2.25;;
15035;SDS011;7615;48.574;13.474;2023-09-19T03:45:29;2.90;;;1.80;;
15035;SDS011;7615;48.574;13.474;2023-09-19T03:47:58;4.25;;;1.90;;
15035;SDS011;7615;48.574;13.474;2023-09-19T03:50:26;3.28;;;2.38;;
15035;SDS011;7615;48.574;13.474;2023-09-19T03:52:55;2.63;;;2.30;;
15035;SDS011;7615;48.574;13.474;2023-09-19T03:55:24;3.75;;;1.88;;
15035;SDS011;7615;48.574;13.474;2023-09-19T03:57:51;2.03;;;1.88;;
15035;SDS011;7615;48.574;13.474;2023-09-19T04:00:22;3.08;;;2.05;;
15035;SDS011;7615;48.574;13.474;2023-09-19T04:02:51;2.85;;;2.42;;
15035;SDS011;7615;48.574;13.474;2023-09-19T04:05:23;4.55;;;1.92;;
15035;SDS011;7615;48.574;13.474;2023-09-19T04:07:54;7.05;;;1.90;;
15035;SDS011;7615;48.574;13.474;2023-09-19T04:10:22;2.10;;;1.80;;
15035;SDS011;7615;48.574;13.474;2023-09-19T04:12:50;2.00;;;1.90;;
15035;SDS011;7615;48.574;13.474;2023-09-19T04:15:19;1.90;;;1.70;;
15035;SDS011;7615;48.574;13.474;2023-09-19T04:17:51;2.00;;;1.70;;
15035;SDS011;7615;48.574;13.474;2023-09-19T04:20:18;2.30;;;1.75;;
15035;SDS011;7615;48.574;13.474;2023-09-19T04:22:47;1.90;;;1.70;;
15035;SDS011;7615;48.574;13.474;2023-09-19T04:25:16;2.03;;;1.75;;
15035;SDS011;7615;48.574;13.474;2023-09-19T04:27:45;2.92;;;1.90;;
15035;SDS011;7615;48.574;13.474;2023-09-19T04:30:13;2.33;;;2.13;;
15035;SDS011;7615;48.574;13.474;2023-09-19T04:32:41;2.17;;;1.50;;
15035;SDS011;7615;48.574;13.474;2023-09-19T04:35:11;3.65;;;1.65;;
15035;SDS011;7615;48.574;13.474;2023-09-19T04:37:40;5.03;;;1.65;;
15035;SDS011;7615;48.574;13.474;2023-09-19T04:40:08;5.28;;;2.15;;
15035;SDS011;7615;48.574;13.474;2023-09-19T04:42:42;4.05;;;2.33;;
15035;SDS011;7615;48.574;13.474;2023-09-19T04:45:11;3.58;;;2.60;;
15035;SDS011;7615;48.574;13.474;2023-09-19T04:47:39;5.32;;;2.95;;
15035;SDS011;7615;48.574;13.474;2023-09-19T04:50:14;6.28;;;2.88;;
15035;SDS011;7615;48.574;13.474;2023-09-19T04:52:43;2.13;;;1.70;;
15035;SDS011;7615;48.574;13.474;2023-09-19T04:58:38;3.28;;;2.00;;
15035;SDS011;7615;48.574;13.474;2023-09-19T05:01:05;5.68;;;2.63;;
15035;SDS011;7615;48.574;13.474;2023-09-19T05:03:36;3.22;;;1.55;;
15035;SDS011;7615;48.574;13.474;2023-09-19T05:06:08;2.65;;;1.92;;
15035;SDS011;7615;48.574;13.474;2023-09-19T05:08:47;3.63;;;1.60;;
15035;SDS011;7615;48.574;13.474;2023-09-19T05:11:17;4.80;;;1.63;;
15035;SDS011;7615;48.574;13.474;2023-09-19T05:13:56;2.53;;;1.92;;
15035;SDS011;7615;48.574;13.474;2023-09-19T05:17:04;3.13;;;1.48;;
15035;SDS011;7615;48.574;13.474;2023-09-19T05:19:39;2.53;;;1.77;;
15035;SDS011;7615;48.574;13.474;2023-09-19T05:22:20;1.85;;;1.63;;
15035;SDS011;7615;48.574;13.474;2023-09-19T05:25:02;4.18;;;1.80;;
15035;SDS011;7615;48.574;13.474;2023-09-19T05:27:42;3.22;;;1.90;;
15035;SDS011;7615;48.574;13.474;2023-09-19T05:30:17;3.33;;;1.65;;
15035;SDS011;7615;48.574;13.474;2023-09-19T05:32:47;2.72;;;1.98;;
15035;SDS011;7615;48.574;13.474;2023-09-19T05:35:30;2.13;;;1.60;;
15035;SDS011;7615;48.574;13.474;2023-09-19T05:41:18;2.92;;;2.13;;
15035;SDS011;7615;48.574;13.474;2023-09-19T05:43:52;5.22;;;2.38;;
15035;SDS011;7615;48.574;13.474;2023-09-19T05:46:24;7.43;;;2.90;;
15035;SDS011;7615;48.574;13.474;2023-09-19T05:48:59;9.35;;;2.35;;
15035;SDS011;7615;48.574;13.474;2023-09-19T05:51:54;5.43;;;2.40;;
15035;SDS011;7615;48.574;13.474;2023-09-19T06:03:45;4.68;;;2.05;;
15035;SDS011;7615;48.574;13.474;2023-09-19T06:06:24;4.55;;;2.00;;
15035;SDS011;7615;48.574;13.474;2023-09-19T06:08:56;2.90;;;2.28;;
15035;SDS011;7615;48.574;13.474;2023-09-19T06:12:13;4.18;;;2.10;;
15035;SDS011;7615;48.574;13.474;2023-09-19T06:15:02;3.00;;;1.85;;
15035;SDS011;7615;48.574;13.474;2023-09-19T06:18:01;1.80;;;1.70;;
15035;SDS011;7615;48.574;13.474;2023-09-19T06:23:51;5.80;;;1.77;;
15035;SDS011;7615;48.574;13.474;2023-09-19T06:26:20;4.38;;;1.75;;
15035;SDS011;7615;48.574;13.474;2023-09-19T06:28:57;3.95;;;1.75;;
15035;SDS011;7615;48.574;13.474;2023-09-19T06:31:26;3.97;;;2.20;;
15035;SDS011;7615;48.574;13.474;2023-09-19T06:33:56;1.80;;;1.70;;
15035;SDS011;7615;48.574;13.474;2023-09-19T06:36:29;5.03;;;1.77;;
15035;SDS011;7615;48.574;13.474;2023-09-19T06:38:57;2.85;;;2.20;;
15035;SDS011;7615;48.574;13.474;2023-09-19T06:41:31;3.00;;;1.73;;
15035;SDS011;7615;48.574;13.474;2023-09-19T06:44:01;2.20;;;1.50;;
15035;SDS011;7615;48.574;13.474;2023-09-19T06:46:30;2.35;;;1.90;;
15035;SDS011;7615;48.574;13.474;2023-09-19T06:49:04;3.17;;;1.67;;
15035;SDS011;7615;48.574;13.474;2023-09-19T06:51:44;14.00;;;2.50;;
15035;SDS011;7615;48.574;13.474;2023-09-19T06:54:15;14.75;;;2.33;;
15035;SDS011;7615;48.574;13.474;2023-09-19T06:56:45;6.15;;;2.40;;
15035;SDS011;7615;48.574;13.474;2023-09-19T06:59:14;2.65;;;2.40;;
15035;SDS011;7615;48.574;13.474;2023-09-19T07:01:45;6.78;;;2.08;;
15035;SDS011;7615;48.574;13.474;2023-09-19T07:04:29;3.85;;;1.80;;
15035;SDS011;7615;48.574;13.474;2023-09-19T07:13:35;3.50;;;1.58;;
15035;SDS011;7615;48.574;13.474;2023-09-19T07:20:24;2.33;;;1.90;;
15035;SDS011;7615;48.574;13.474;2023-09-19T07:23:00;3.72;;;1.80;;
15035;SDS011;7615;48.574;13.474;2023-09-19T07:25:34;4.22;;;1.77;;
15035;SDS011;7615;48.574;13.474;2023-09-19T07:28:03;3.03;;;1.75;;
15035;SDS011;7615;48.574;13.474;2023-09-19T07:30:40;1.60;;;1.50;;
15035;SDS011;7615;48.574;13.474;2023-09-19T07:33:28;4.63;;;2.28;;
15035;SDS011;7615;48.574;13.474;2023-09-19T07:35:59;4.63;;;1.90;;
15035;SDS011;7615;48.574;13.474;2023-09-19T07:38:54;2.80;;;1.67;;
15035;SDS011;7615;48.574;13.474;2023-09-19T07:42:18;5.68;;;1.67;;
15035;SDS011;7615;48.574;13.474;2023-09-19T07:45:02;3.92;;;1.85;;
15035;SDS011;7615;48.574;13.474;2023-09-19T07:47:43;2.78;;;1.55;;
15035;SDS011;7615;48.574;13.474;2023-09-19T07:50:12;6.60;;;1.60;;
15035;SDS011;7615;48.574;13.474;2023-09-19T07:52:41;1.60;;;1.50;;
15035;SDS011;7615;48.574;13.474;2023-09-19T07:55:16;3.17;;;1.75;;
15035;SDS011;7615;48.574;13.474;2023-09-19T07:57:53;3.72;;;1.50;;
15035;SDS011;7615;48.574;13.474;2023-09-19T08:00:35;2.75;;;1.83;;
15035;SDS011;7615;48.574;13.474;2023-09-19T08:19:32;2.00;;;1.80;;
15035;SDS011;7615;48.574;13.474;2023-09-19T08:22:01;3.58;;;2.20;;
15035;SDS011;7615;48.574;13.474;2023-09-19T08:24:30;3.92;;;1.80;;
15035;SDS011;7615;48.574;13.474;2023-09-19T08:26:59;2.20;;;2.00;;
15035;SDS011;7615;48.574;13.474;2023-09-19T08:29:29;1.95;;;1.73;;
15035;SDS011;7615;48.574;13.474;2023-09-19T08:32:05;4.03;;;2.05;;
15035;SDS011;7615;48.574;13.474;2023-09-19T08:34:49;3.53;;;1.90;;
15035;SDS011;7615;48.574;13.474;2023-09-19T08:37:26;3.22;;;1.80;;
15035;SDS011;7615;48.574;13.474;2023-09-19T08:39:59;3.03;;;1.75;;
15035;SDS011;7615;48.574;13.474;2023-09-19T08:42:50;2.05;;;1.77;;
15035;SDS011;7615;48.574;13.474;2023-09-19T08:45:26;2.38;;;1.65;;
15035;SDS011;7615;48.574;13.474;2023-09-19T08:48:11;3.55;;;1.70;;
15035;SDS011;7615;48.574;13.474;2023-09-19T08:54:20;2.85;;;1.70;;
15035;SDS011;7615;48.574;13.474;2023-09-19T08:57:05;1.98;;;1.73;;
15035;SDS011;7615;48.574;13.474;2023-09-19T08:59:48;2.50;;;1.50;;
15035;SDS011;7615;48.574;13.474;2023-09-19T09:02:27;2.67;;;1.70;;
15035;SDS011;7615;48.574;13.474;2023-09-19T09:04:56;2.00;;;1.40;;
15035;SDS011;7615;48.574;13.474;2023-09-19T09:07:33;4.60;;;1.90;;
15035;SDS011;7615;48.574;13.474;2023-09-19T09:10:12;2.10;;;1.90;;
15035;SDS011;7615;48.574;13.474;2023-09-19T09:12:49;5.45;;;1.80;;
15035;SDS011;7615;48.574;13.474;2023-09-19T09:15:23;4.43;;;1.67;;
15035;SDS011;7615;48.574;13.474;2023-09-19T09:17:55;2.55;;;1.80;;
15035;SDS011;7615;48.574;13.474;2023-09-19T09:20:38;6.85;;;1.80;;
15035;SDS011;7615;48.574;13.474;2023-09-19T09:23:12;2.85;;;1.77;;
15035;SDS011;7615;48.574;13.474;2023-09-19T09:25:51;3.00;;;1.52;;
15035;SDS011;7615;48.574;13.474;2023-09-19T09:28:28;2.30;;;1.50;;
15035;SDS011;7615;48.574;13.474;2023-09-19T09:31:21;2.30;;;1.95;;
15035;SDS011;7615;48.574;13.474;2023-09-19T09:34:03;4.50;;;2.00;;
15035;SDS011;7615;48.574;13.474;2023-09-19T09:36:50;2.17;;;1.73;;
15035;SDS011;7615;48.574;13.474;2023-09-19T09:42:37;3.80;;;1.75;;
15035;SDS011;7615;48.574;13.474;2023-09-19T09:45:31;3.63;;;1.65;;
15035;SDS011;7615;48.574;13.474;2023-09-19T09:48:13;3.88;;;1.70;;
15035;SDS011;7615;48.574;13.474;2023-09-19T09:50:55;1.85;;;1.60;;
15035;SDS011;7615;48.574;13.474;2023-09-19T09:53:43;2.72;;;2.28;;
15035;SDS011;7615;48.574;13.474;2023-09-19T10:06:22;1.60;;;1.50;;
15035;SDS011;7615;48.574;13.474;2023-09-19T10:09:08;2.13;;;1.65;;
15035;SDS011;7615;48.574;13.474;2023-09-19T10:12:00;1.38;;;1.27;;
15035;SDS011;7615;48.574;13.474;2023-09-19T10:14:43;2.10;;;1.50;;
15035;SDS011;7615;48.574;13.474;2023-09-19T10:17:35;2.97;;;1.50;;
15035;SDS011;7615;48.574;13.474;2023-09-19T10:23:32;1.80;;;1.40;;
15035;SDS011;7615;48.574;13.474;2023-09-19T10:33:03;4.85;;;1.70;;
15035;SDS011;7615;48.574;13.474;2023-09-19T10:35:48;2.85;;;1.92;;
15035;SDS011;7615;48.574;13.474;2023-09-19T10:38:52;2.83;;;1.88;;
15035;SDS011;7615;48.574;13.474;2023-09-19T10:41:37;4.18;;;1.90;;
15035;SDS011;7615;48.574;13.474;2023-09-19T10:44:18;2.08;;;1.83;;
15035;SDS011;7615;48.574;13.474;2023-09-19T10:47:02;1.80;;;1.70;;
15035;SDS011;7615;48.574;13.474;2023-09-19T10:49:55;2.22;;;1.67;;
15035;SDS011;7615;48.574;13.474;2023-09-19T10:52:42;4.28;;;2.30;;
15035;SDS011;7615;48.574;13.474;2023-09-19T10:55:53;2.58;;;1.90;;
15035;SDS011;7615;48.574;13.474;2023-09-19T10:58:37;3.60;;;2.00;;
15035;SDS011;7615;48.574;13.474;2023-09-19T11:01:20;4.68;;;1.83;;
15035;SDS011;7615;48.574;13.474;2023-09-19T11:03:57;1.60;;;1.50;;
15035;SDS011;7615;48.574;13.474;2023-09-19T11:07:04;2.15;;;1.80;;
15035;SDS011;7615;48.574;13.474;2023-09-19T11:09:51;1.92;;;1.30;;
15035;SDS011;7615;48.574;13.474;2023-09-19T11:16:10;1.92;;;1.58;;
15035;SDS011;7615;48.574;13.474;2023-09-19T11:18:59;6.47;;;2.53;;
15035;SDS011;7615;48.574;13.474;2023-09-19T11:21:52;2.53;;;2.10;;
15035;SDS011;7615;48.574;13.474;2023-09-19T11:24:36;3.20;;;1.40;;
15035;SDS011;7615;48.574;13.474;2023-09-19T11:27:19;1.67;;;1.45;;
15035;SDS011;7615;48.574;13.474;2023-09-19T11:30:04;1.98;;;1.50;;
15035;SDS011;7615;48.574;13.474;2023-09-19T11:43:06;1.50;;;1.10;;
15035;SDS011;7615;48.574;13.474;2023-09-19T20:35:50;5.03;;;3.10;;
15035;SDS011;7615;48.574;13.474;2023-09-19T20:38:19;4.00;;;3.38;;
15035;SDS011;7615;48.574;13.474;2023-09-19T20:40:48;3.70;;;2.85;;
15035;SDS011;7615;48.574;13.474;2023-09-19T20:43:15;3.47;;;2.88;;
15035;SDS011;7615;48.574;13.474;2023-09-19T20:45:44;5.63;;;3.20;;
15035;SDS011;7615;48.574;13.474;2023-09-19T20:48:11;3.75;;;3.30;;
15035;SDS011;7615;48.574;13.474;2023-09-19T20:50:40;3.63;;;3.30;;
15035;SDS011;7615;48.574;13.474;2023-09-19T20:53:10;5.25;;;3.05;;
15035;SDS011;7615;48.574;13.474;2023-09-19T20:55:37;3.67;;;3.38;;
15035;SDS011;7615;48.574;13.474;2023-09-19T20:58:05;4.28;;;3.58;;
15035;SDS011;7615;48.574;13.474;2023-09-19T21:00:33;5.85;;;4.20;;
15035;SDS011;7615;48.574;13.474;2023-09-19T21:03:00;6.38;;;4.38;;
15035;SDS011;7615;48.574;13.474;2023-09-19T21:05:28;6.28;;;4.80;;
15035;SDS011;7615;48.574;13.474;2023-09-19T21:07:55;5.55;;;5.03;;
15035;SDS011;7615;48.574;13.474;2023-09-19T21:10:28;5.75;;;5.18;;
15035;SDS011;7615;48.574;13.474;2023-09-19T21:12:56;5.60;;;5.10;;
15035;SDS011;7615;48.574;13.474;2023-09-19T21:15:23;6.28;;;5.80;;
15035;SDS011;7615;48.574;13.474;2023-09-19T21:17:51;6.25;;;5.65;;
15035;SDS011;7615;48.574;13.474;2023-09-19T21:20:19;6.43;;;5.93;;
15035;SDS011;7615;48.574;13.474;2023-09-19T21:22:48;6.28;;;5.68;;
15035;SDS011;7615;48.574;13.474;2023-09-19T21:25:16;6.35;;;5.75;;
15035;SDS011;7615;48.574;13.474;2023-09-19T21:27:46;6.38;;;5.75;;
15035;SDS011;7615;48.574;13.474;2023-09-19T21:30:13;6.72;;;6.20;;
15035;SDS011;7615;48.574;13.474;2023-09-19T21:32:41;11.55;;;6.40;;
15035;SDS011;7615;48.574;13.474;2023-09-19T21:35:09;9.60;;;7.13;;
15035;SDS011;7615;48.574;13.474;2023-09-19T21:37:37;18.02;;;10.85;;
15035;SDS011;7615;48.574;13.474;2023-09-19T21:40:06;10.48;;;7.18;;
15035;SDS011;7615;48.574;13.474;2023-09-19T21:42:34;7.15;;;6.47;;
15035;SDS011;7615;48.574;13.474;2023-09-19T21:45:05;6.93;;;6.30;;
15035;SDS011;7615;48.574;13.474;2023-09-19T21:47:33;7.55;;;6.75;;
15035;SDS011;7615;48.574;13.474;2023-09-19T21:50:01;7.88;;;7.13;;
15035;SDS011;7615;48.574;13.474;2023-09-19T21:52:28;7.55;;;6.85;;
15035;SDS011;7615;48.574;13.474;2023-09-19T21:54:56;7.05;;;6.38;;
15035;SDS011;7615;48.574;13.474;2023-09-19T21:57:24;7.10;;;6.40;;
15035;SDS011;7615;48.574;13.474;2023-09-19T21:59:51;7.13;;;6.47;;
15035;SDS011;7615;48.574;13.474;2023-09-19T22:02:20;7.70;;;6.22;;
15035;SDS011;7615;48.574;13.474;2023-09-19T22:04:48;7.50;;;5.63;;
15035;SDS011;7615;48.574;13.474;2023-09-19T22:07:15;5.63;;;5.10;;
15035;SDS011;7615;48.574;13.474;2023-09-19T22:09:43;6.57;;;5.97;;
15035;SDS011;7615;48.574;13.474;2023-09-19T22:12:10;5.97;;;5.47;;
15035;SDS011;7615;48.574;13.474;2023-09-19T22:14:38;7.10;;;5.78;;
15035;SDS011;7615;48.574;13.474;2023-09-19T22:17:06;6.00;;;5.40;;
15035;SDS011;7615;48.574;13.474;2023-09-19T22:19:36;6.25;;;5.75;;
15035;SDS011;7615;48.574;13.474;2023-09-19T22:22:08;7.22;;;6.25;;
15035;SDS011;7615;48.574;13.474;2023-09-19T22:24:37;6.93;;;6.22;;
15035;SDS011;7615;48.574;13.474;2023-09-19T22:27:05;10.45;;;6.97;;
15035;SDS011;7615;48.574;13.474;2023-09-19T22:29:36;9.23;;;6.95;;
15035;SDS011;7615;48.574;13.474;2023-09-19T22:32:07;7.88;;;6.70;;
15035;SDS011;7615;48.574;13.474;2023-09-19T22:34:38;7.03;;;6.40;;
15035;SDS011;7615;48.574;13.474;2023-09-19T22:37:06;7.60;;;6.63;;
15035;SDS011;7615;48.574;13.474;2023-09-19T22:39:36;12.00;;;6.75;;
15035;SDS011;7615;48.574;13.474;2023-09-19T22:42:03;12.88;;;6.80;;
15035;SDS011;7615;48.574;13.474;2023-09-19T22:44:36;8.88;;;6.65;;
15035;SDS011;7615;48.574;13.474;2023-09-19T22:47:04;17.45;;;7.90;;
15035;SDS011;7615;48.574;13.474;2023-09-19T22:49:32;34.53;;;7.35;;
15035;SDS011;7615;48.574;13.474;2023-09-19T22:52:01;30.33;;;7.82;;
15035;SDS011;7615;48.574;13.474;2023-09-19T22:54:29;48.35;;;7.55;;
15035;SDS011;7615;48.574;13.474;2023-09-19T22:57:01;22.08;;;7.25;;
15035;SDS011;7615;48.574;13.474;2023-09-19T22:59:30;61.50;;;7.70;;
15035;SDS011;7615;48.574;13.474;2023-09-19T23:02:01;161.10;;;11.02;;
15035;SDS011;7615;48.574;13.474;2023-09-19T23:04:30;67.60;;;8.25;;
15035;SDS011;7615;48.574;13.474;2023-09-19T23:07:01;56.95;;;7.57;;
15035;SDS011;7615;48.574;13.474;2023-09-19T23:09:30;87.47;;;8.98;;
15035;SDS011;7615;48.574;13.474;2023-09-19T23:12:00;39.28;;;6.93;;
15035;SDS011;7615;48.574;13.474;2023-09-19T23:14:32;20.58;;;6.40;;
15035;SDS011;7615;48.574;13.474;2023-09-19T23:17:03;20.52;;;7.07;;
15035;SDS011;7615;48.574;13.474;2023-09-19T23:19:36;116.95;;;10.07;;
15035;SDS011;7615;48.574;13.474;2023-09-19T23:22:06;40.00;;;6.95;;
15035;SDS011;7615;48.574;13.474;2023-09-19T23:24:37;79.30;;;9.05;;
15035;SDS011;7615;48.574;13.474;2023-09-19T23:27:06;45.45;;;7.70;;
15035;SDS011;7615;48.574;13.474;2023-09-19T23:29:41;69.22;;;9.80;;
15035;SDS011;7615;48.574;13.474;2023-09-19T23:32:09;10.70;;;7.15;;
15035;SDS011;7615;48.574;13.474;2023-09-19T23:34:40;10.45;;;7.57;;
15035;SDS011;7615;48.574;13.474;2023-09-19T23:37:09;8.60;;;6.97;;
15035;SDS011;7615;48.574;13.474;2023-09-19T23:39:37;8.07;;;6.82;;
15035;SDS011;7615;48.574;13.474;2023-09-19T23:42:07;6.53;;;5.55;;
15035;SDS011;7615;48.574;13.474;2023-09-19T23:44:37;6.13;;;5.53;;
15035;SDS011;7615;48.574;13.474;2023-09-19T23:47:06;5.10;;;4.70;;
15035;SDS011;7615;48.574;13.474;2023-09-19T23:49:37;5.75;;;4.80;;
15035;SDS011;7615;48.574;13.474;2023-09-19T23:52:05;6.75;;;4.70;;
15035;SDS011;7615;48.574;13.474;2023-09-19T23:54:36;5.63;;;5.13;;
15035;SDS011;7615;48.574;13.474;2023-09-19T23:57:05;4.85;;;4.45;;
15035;SDS011;7615;48.574;13.474;2023-09-19T23:59:34;5.72;;;5.15;;
